x

Nantucket 54nm Southeast Of Nantucket (44008) Wave Buoy

3:50am - Thu 23rd Nov 2017 All times are EST. -5 hours from GMT.

  • Sig Wave height 11.2ft
  • Swell Direction
  • Peak Period 11s
  • Average Period 7s
  • Wind
    18mph, 25mph gusts
  • Sea Temp 54°f
  • Air Temp 44°f
  • Sea Pressure 1014mb
  • Nantucket 54nm Southeast Of Nantucket
  • Nantucket 54nm Southeast Of Nantucket

More Historic Weather Station data

Upgrade to MSW Pro to gain access to the past 30 days of data for over 8000 Wavebouys and Weather Stations around the globe.

Join

Comparision Forecast

View Surf forecast
   
Thu 11/23 3:50am 11ft 11s 7s 18 25 mph 1014mb 54f 44f
2:50am 11.5ft 8s 7s 18 25 mph 1013.7mb 54f 44f
1:50am 12.5ft 8s 7s 25 31 mph 1012.9mb 54f 45f
12:50am 13ft 8s 7s 25 31 mph 1012.2mb 54f 46f
Wed 11/22 11:50pm 12.5ft 8s 7s 27 34 mph 1011.7mb 54f 46f
10:50pm 11ft 7s 7s 34 40 mph 1010.1mb 54f 46f
9:50pm 9ft 6s 6s 29 36 mph 1009mb 54f 49f
8:50pm 8ft 5s 6s 36 45 mph 1007.3mb 54f 49f
7:50pm 5.5ft 6s 5s 36 43 mph 1006mb 54f 50f
6:50pm 4.5ft 6s 5s 20 25 mph 1004.7mb 54f 55f
5:50pm 4.5ft 7s 5s 16 20 mph 1004.6mb 55f 55f
4:50pm 5ft 7s 5s 20 25 mph 1004.1mb 55f 56f
3:50pm 5ft 6s 5s 11 16 mph 1003.9mb 55f 58f
2:50pm 5ft 7s 5s 18 20 mph 1004.5mb 56f 59f
1:50pm 5ft 6s 5s 16 20 mph 1007.2mb 56f 58f
12:50pm 5ft 7s 5s 13 16 mph 1009.6mb 56f 58f
11:50am 4.5ft 7s 5s 11 13 mph 1011mb 55f 58f
10:50am 5ft 8s 5s 20 22 mph 1012.3mb 55f 60f
9:50am 5ft 7s 5s 20 25 mph 1013.5mb 55f 60f
8:50am 5ft 8s 5s 20 22 mph 1014.5mb 55f 59f
7:50am 5ft 8s 6s 16 20 mph 1015.9mb 55f 59f
6:50am 5ft 8s 6s 16 18 mph 1016.6mb 55f 59f
5:50am 6ft 8s 6s 11 13 mph 1017.6mb 55f 58f
4:50am 6ft 8s 6s 11 13 mph 1018.4mb 55f 58f
3:50am 6ft 8s 6s 11 11 mph 1018.9mb 55f 58f
2:50am 6ft 8s 6s 16 18 mph 1019.3mb 55f 59f
1:50am 7ft 8s 6s 20 22 mph 1019.9mb 55f 59f
12:50am 6.5ft 8s 6s 18 22 mph 1020.3mb 55f 59f
Tue 11/21 11:50pm 6ft 8s 5s 20 25 mph 1020.6mb 55f 59f
10:50pm 7ft 8s 6s 20 25 mph 1020.7mb 55f 58f
9:50pm 7ft 7s 6s 20 22 mph 1020.8mb 55f 58f
8:50pm 6.5ft 8s 6s 18 22 mph 1021.3mb 55f 58f
7:50pm 7ft 7s 6s 18 22 mph 1021.4mb 55f 58f
6:50pm 6ft 7s 6s 18 22 mph 1021.4mb 55f 58f
5:50pm 5.5ft 7s 6s 20 22 mph 1021.1mb 55f 58f
4:50pm 6ft 7s 6s 18 22 mph 1021.2mb 55f 58f
3:50pm 6ft 7s 6s 16 20 mph 1021.3mb 56f 58f
2:50pm 6ft 7s 5s 20 25 mph 1021.4mb 55f 58f
1:50pm 6ft 7s 5s 22 27 mph 1021.7mb 56f 57f
12:50pm 6.5ft 7s 5s 22 27 mph 1021.9mb 56f 57f
11:50am 6ft 7s 5s 25 29 mph 1022.5mb 55f 57f
10:50am 6ft 7s 5s 20 25 mph 1023.2mb 55f 56f
9:50am 5.5ft 7s 5s 20 22 mph 1023.5mb 55f 56f
8:50am 6ft 8s 6s 20 22 mph 1023.2mb 55f 55f
7:50am 5.5ft 8s 5s 20 22 mph 1022.8mb 55f 54f
6:50am 6ft 8s 6s 20 25 mph 1022.2mb 55f 54f
5:50am 7.5ft 8s 6s 20 25 mph 1022mb 55f 53f
4:50am 7ft 8s 6s 18 27 mph 1021.7mb 55f 53f
3:50am 8ft 8s 6s 20 25 mph 1021.6mb 55f 53f
2:50am 8ft 8s 6s 20 22 mph 1021.3mb 55f 52f
1:50am 8ft 8s 6s 20 25 mph 1021.3mb 56f 51f
12:50am 9.5ft 8s 6s 25 29 mph 1020.4mb 55f 51f
Mon 11/20 11:50pm 10ft 8s 6s 25 31 mph 1019.9mb 55f 51f
10:50pm 10ft 8s 6s 29 36 mph 1019.3mb 55f 51f
9:50pm 10ft 8s 7s 27 34 mph 1018.6mb 55f 50f
8:50pm 11ft 9s 7s 25 31 mph 1018.2mb 55f 50f
7:50pm 10ft 9s 6s 31 40 mph 1017.4mb 55f 49f
6:50pm 9.5ft 10s 7s 29 36 mph 1017.1mb 55f 48f
5:50pm 10ft 8s 7s 27 31 mph 1016.8mb 55f 47f
4:50pm 10.5ft 9s 7s 31 38 mph 1015.5mb 55f 46f
3:50pm 11ft 9s 7s 29 36 mph 1014.8mb 56f 46f
2:50pm 11.5ft 10s 7s 27 34 mph 1014.2mb 56f 45f
1:50pm 12ft 10s 7s 27 34 mph 1013.6mb 56f 45f
12:50pm 12ft 9s 7s 29 36 mph 1013.2mb 56f 44f
11:50am 12ft 10s 7s 29 34 mph 1012.8mb 56f 44f
10:50am 12ft 9s 7s 31 40 mph 1012.8mb 56f 44f
9:50am 12ft 8s 7s 29 38 mph 1012.9mb 56f 43f
8:50am 12ft 9s 7s 31 40 mph 1011.4mb 56f 43f
7:50am 12ft 8s 7s 29 38 mph 1010.2mb 56f 46f
6:50am 11ft 8s 7s 27 34 mph 1009.1mb 56f 46f
5:50am 10.5ft 11s 7s 22 31 mph 1008.2mb 56f 46f
4:50am 11ft 11s 7s 22 31 mph 1007.4mb 56f 47f
3:50am 13ft 11s 8s 25 31 mph 1006.5mb 56f 48f
2:50am 14ft 12s 7s 25 34 mph 1006mb 56f 48f
1:50am 14ft 11s 7s 29 34 mph 1005.4mb 56f 48f
12:50am 14ft 11s 7s 29 38 mph 1004.7mb 56f 49f
Sun 11/19 11:50pm 14.5ft 11s 8s 27 34 mph 1004.2mb 56f 48f
10:50pm 15.5ft 11s 8s 29 36 mph 1003.2mb 56f 49f
9:50pm 15ft 11s 8s 29 36 mph 1002.3mb 56f 50f
8:50pm 17.5ft 10s 8s 31 38 mph 1001.2mb 56f 51f
7:50pm 16.5ft 11s 8s 31 38 mph 1000.1mb 56f 52f
6:50pm 16ft 11s 8s 31 38 mph 999.2mb 56f 52f
5:50pm 15.5ft 11s 8s 31 43 mph 998.1mb 56f 53f
4:50pm 17.5ft 11s 9s 31 40 mph 996.5mb 57f 53f
3:50pm 15.5ft 11s 8s 31 40 mph 995.1mb 57f 54f
2:50pm 15.5ft 11s 8s 29 36 mph 994.1mb 57f 56f
1:50pm 14.5ft 11s 8s 31 38 mph 992.9mb 57f 57f
12:50pm 15.5ft 10s 8s 29 36 mph 992.1mb 57f 60f
11:50am 14ft 10s 7s 25 29 mph 992.4mb 57f 60f
10:50am 13.5ft 9s 7s 25 29 mph 993.4mb 57f 60f